createdAt,value
2023-01-20T00:01:32.497Z,5.93
2023-01-20T00:04:00.191Z,6.70
2023-01-20T00:06:28.068Z,5.80
2023-01-20T00:08:57.582Z,5.47
2023-01-20T00:11:25.391Z,6.20
2023-01-20T00:16:47.440Z,7.20
2023-01-20T00:19:16.006Z,7.67
2023-01-20T00:21:46.367Z,8.10
2023-01-20T00:24:14.826Z,8.33
2023-01-20T00:26:42.332Z,8.93
2023-01-20T00:29:09.957Z,9.17
2023-01-20T00:31:37.693Z,8.87
2023-01-20T00:34:10.066Z,9.57
2023-01-20T00:36:37.738Z,9.53
2023-01-20T00:39:17.377Z,8.77
2023-01-20T00:41:44.499Z,10.80
2023-01-20T00:44:11.408Z,9.70
2023-01-20T00:46:42.774Z,10.87
2023-01-20T00:49:10.491Z,10.47
2023-01-20T00:51:39.115Z,11.20
2023-01-20T00:54:09.612Z,10.87
2023-01-20T00:56:36.250Z,11.80
2023-01-20T00:59:02.878Z,12.67
2023-01-20T01:01:29.508Z,12.97
2023-01-20T01:03:56.197Z,12.77
2023-01-20T01:06:23.636Z,13.33
2023-01-20T01:08:50.244Z,14.43
2023-01-20T01:11:16.807Z,15.17
2023-01-20T01:13:43.467Z,14.83
2023-01-20T01:16:15.191Z,14.43
2023-01-20T01:18:42.735Z,15.27
2023-01-20T01:21:11.674Z,16.27
2023-01-20T01:23:38.308Z,16.73
2023-01-20T01:26:05.233Z,17.13
2023-01-20T01:28:31.919Z,17.20
2023-01-20T01:31:06.344Z,18.40
2023-01-20T01:33:33.995Z,17.83
2023-01-20T01:36:02.973Z,18.43
2023-01-20T01:38:30.132Z,20.90
2023-01-20T01:40:56.945Z,19.37
2023-01-20T01:43:26.318Z,22.70
2023-01-20T01:45:53.133Z,23.80
2023-01-20T01:48:50.224Z,25.00
2023-01-20T01:51:24.566Z,24.87
2023-01-20T01:53:58.197Z,26.43
2023-01-20T01:56:27.424Z,26.93
2023-01-20T01:58:57.053Z,26.70
2023-01-20T02:01:25.442Z,28.60
2023-01-20T02:04:11.042Z,29.57
2023-01-20T02:06:48.136Z,28.80
2023-01-20T02:09:14.730Z,29.30
2023-01-20T02:11:48.387Z,29.77
2023-01-20T02:14:18.007Z,30.53
2023-01-20T02:16:53.747Z,24.57
2023-01-20T02:19:51.877Z,27.43
2023-01-20T02:22:47.325Z,31.93
2023-01-20T02:25:49.793Z,33.53
2023-01-20T02:28:25.491Z,32.87
2023-01-20T02:31:26.334Z,31.07
2023-01-20T02:34:20.980Z,32.60
2023-01-20T02:36:55.202Z,33.57
2023-01-20T02:40:00.021Z,32.23
2023-01-20T02:46:23.000Z,30.50
2023-01-20T02:49:22.840Z,29.97
2023-01-20T02:52:11.157Z,31.77
2023-01-20T02:55:08.882Z,31.97
2023-01-20T02:58:19.236Z,26.93
2023-01-20T03:00:58.503Z,31.77
2023-01-20T03:03:51.235Z,28.80
2023-01-20T03:06:22.449Z,31.73
2023-01-20T03:09:04.302Z,27.37
2023-01-20T03:11:41.266Z,28.77
2023-01-20T03:14:15.114Z,28.17
2023-01-20T03:16:42.600Z,27.57
2023-01-20T03:19:10.650Z,33.40
2023-01-20T03:21:37.358Z,29.93
2023-01-20T03:24:10.915Z,27.47
2023-01-20T03:26:38.714Z,30.40
2023-01-20T03:29:11.790Z,27.17
2023-01-20T03:32:02.140Z,27.23
2023-01-20T03:34:40.022Z,27.27
2023-01-20T03:37:14.300Z,27.13
2023-01-20T03:39:41.031Z,25.70
2023-01-20T03:42:26.065Z,28.77
2023-01-20T03:45:07.967Z,28.57
2023-01-20T03:48:06.707Z,27.73
2023-01-20T03:51:10.030Z,29.33
2023-01-20T03:54:07.871Z,27.83
2023-01-20T03:57:22.633Z,26.00
2023-01-20T03:59:52.335Z,24.97
2023-01-20T04:02:25.121Z,26.27
2023-01-20T04:04:56.676Z,26.37
2023-01-20T04:07:26.151Z,25.83
2023-01-20T04:09:56.886Z,24.43
2023-01-20T04:12:23.742Z,25.20
2023-01-20T04:14:50.383Z,22.97
2023-01-20T04:17:29.721Z,22.77
2023-01-20T04:20:00.160Z,23.13
2023-01-20T04:22:51.649Z,23.77
2023-01-20T04:25:31.675Z,22.80
2023-01-20T04:28:01.255Z,23.10
2023-01-20T04:30:37.025Z,22.63
2023-01-20T04:33:09.963Z,22.40
2023-01-20T04:35:36.588Z,21.80
2023-01-20T04:38:03.227Z,23.17
2023-01-20T04:40:30.113Z,21.23
2023-01-20T04:42:56.677Z,22.83
2023-01-20T04:45:23.433Z,19.80
2023-01-20T04:47:50.111Z,21.90
2023-01-20T04:50:20.108Z,21.07
2023-01-20T04:52:46.949Z,20.77
2023-01-20T04:55:13.936Z,18.80
2023-01-20T04:57:40.691Z,19.70
2023-01-20T05:00:18.508Z,19.87
2023-01-20T05:02:45.457Z,19.10
2023-01-20T05:05:12.244Z,18.37
2023-01-20T05:07:38.838Z,18.93
2023-01-20T05:10:06.044Z,18.17
2023-01-20T05:12:32.677Z,18.97
2023-01-20T05:14:59.275Z,19.20
2023-01-20T05:17:38.295Z,17.40
2023-01-20T05:20:05.284Z,14.07
2023-01-20T05:22:33.225Z,15.37
2023-01-20T05:25:00.361Z,18.50
2023-01-20T05:27:27.005Z,18.27
2023-01-20T05:29:53.777Z,17.50
2023-01-20T05:32:23.480Z,19.13
2023-01-20T05:34:50.048Z,16.30
2023-01-20T05:37:17.859Z,16.90
2023-01-20T05:39:44.468Z,18.30
2023-01-20T05:42:11.082Z,16.90
2023-01-20T05:44:37.814Z,17.03
2023-01-20T05:47:04.436Z,17.00
2023-01-20T05:49:31.037Z,16.43
2023-01-20T05:51:57.606Z,16.43
2023-01-20T05:54:24.654Z,16.80
2023-01-20T05:56:51.198Z,16.37
2023-01-20T05:59:17.967Z,15.70
2023-01-20T06:01:44.588Z,17.17
2023-01-20T06:04:11.115Z,16.53
2023-01-20T06:06:38.088Z,18.13
2023-01-20T06:09:04.596Z,17.30
2023-01-20T06:11:31.127Z,16.67
2023-01-20T06:13:58.104Z,17.97
2023-01-20T06:16:24.853Z,17.67
2023-01-20T06:18:51.483Z,16.37
2023-01-20T06:21:18.133Z,16.07
2023-01-20T06:23:44.744Z,18.17
2023-01-20T06:26:14.242Z,16.10
2023-01-20T06:28:42.278Z,16.77
2023-01-20T06:31:16.292Z,15.83
2023-01-20T06:33:43.742Z,15.93
2023-01-20T06:36:14.030Z,16.33
2023-01-20T06:38:40.957Z,15.93
2023-01-20T06:41:11.444Z,17.27
2023-01-20T06:43:40.725Z,15.90
2023-01-20T06:46:12.194Z,16.07
2023-01-20T06:48:39.999Z,16.53
2023-01-20T06:51:15.251Z,16.37
2023-01-20T06:53:43.459Z,16.90
2023-01-20T06:56:14.263Z,16.33
2023-01-20T06:58:41.578Z,17.90
2023-01-20T07:01:12.257Z,16.50
2023-01-20T07:03:41.257Z,17.43
2023-01-20T07:06:16.353Z,17.53
2023-01-20T07:08:45.877Z,16.23
2023-01-20T07:11:12.509Z,16.70
2023-01-20T07:13:40.784Z,16.73
2023-01-20T07:16:12.016Z,16.57
2023-01-20T07:18:40.647Z,16.43
2023-01-20T07:21:08.520Z,16.53
2023-01-20T07:23:35.138Z,16.43
2023-01-20T07:26:05.072Z,17.27
2023-01-20T07:28:33.040Z,16.73
2023-01-20T07:31:10.489Z,17.10
2023-01-20T07:33:38.091Z,16.53
2023-01-20T07:36:09.898Z,16.90
2023-01-20T07:38:38.066Z,16.27
2023-01-20T07:41:08.382Z,16.20
2023-01-20T07:43:35.496Z,17.40
2023-01-20T07:46:04.053Z,15.67
2023-01-20T07:48:34.682Z,16.30
2023-01-20T07:51:07.938Z,15.27
2023-01-20T07:53:41.340Z,16.53
2023-01-20T07:56:11.384Z,15.20
2023-01-20T07:58:38.721Z,15.37
2023-01-20T08:01:13.972Z,16.07
2023-01-20T08:03:40.892Z,16.30
2023-01-20T08:06:11.112Z,15.87
2023-01-20T08:08:38.303Z,16.43
2023-01-20T08:11:06.672Z,16.77
2023-01-20T08:13:33.741Z,17.03
2023-01-20T08:16:04.947Z,16.83
2023-01-20T08:18:34.071Z,17.13
2023-01-20T08:21:06.234Z,15.67
2023-01-20T08:23:37.219Z,15.50
2023-01-20T08:26:06.614Z,14.53
2023-01-20T08:28:36.028Z,15.67
2023-01-20T08:31:08.136Z,16.40
2023-01-20T08:33:35.086Z,16.63
2023-01-20T08:36:08.084Z,16.20
2023-01-20T08:38:35.731Z,17.10
2023-01-20T08:41:07.433Z,16.50
2023-01-20T08:43:34.896Z,16.90
2023-01-20T08:46:04.104Z,15.90
2023-01-20T08:48:30.742Z,15.90
2023-01-20T08:50:58.967Z,16.50
2023-01-20T08:53:26.168Z,15.47
2023-01-20T08:55:58.853Z,15.33
2023-01-20T08:58:26.100Z,15.80
2023-01-20T09:00:54.356Z,16.00
2023-01-20T09:03:22.159Z,15.80
2023-01-20T09:05:49.364Z,15.30
2023-01-20T09:08:20.032Z,16.03
2023-01-20T09:10:46.838Z,15.50
2023-01-20T09:13:13.618Z,16.60
2023-01-20T09:15:40.684Z,17.00
2023-01-20T09:18:08.349Z,15.50
2023-01-20T09:20:35.629Z,18.03
2023-01-20T09:23:03.284Z,19.47
2023-01-20T09:25:33.247Z,20.13
2023-01-20T09:28:02.914Z,19.30
2023-01-20T09:30:30.330Z,21.17
2023-01-20T09:33:00.117Z,17.10
2023-01-20T09:36:07.406Z,16.10
2023-01-20T09:42:05.463Z,20.13
2023-01-20T09:45:03.547Z,18.37
2023-01-20T09:47:37.303Z,19.40
2023-01-20T09:51:00.964Z,19.07
2023-01-20T09:53:52.740Z,19.23
2023-01-20T09:56:22.832Z,16.77
2023-01-20T09:58:58.564Z,16.13
2023-01-20T10:01:33.158Z,14.50
2023-01-20T10:04:14.307Z,12.23
2023-01-20T10:06:54.206Z,16.23
2023-01-20T10:09:33.858Z,20.10
2023-01-20T10:12:16.082Z,16.77
2023-01-20T10:14:48.832Z,29.10
2023-01-20T10:17:25.064Z,27.37
2023-01-20T10:20:13.081Z,29.47
2023-01-20T10:22:50.703Z,48.10
2023-01-20T10:25:38.483Z,62.93
2023-01-20T10:28:31.494Z,17.03
2023-01-20T10:31:02.513Z,50.70
2023-01-20T10:33:43.260Z,20.63
2023-01-20T10:36:19.258Z,16.17
2023-01-20T10:38:59.145Z,12.73
2023-01-20T10:41:39.161Z,13.32
2023-01-20T10:44:14.534Z,15.57
2023-01-20T10:47:14.456Z,14.40
2023-01-20T10:50:23.445Z,14.27
2023-01-20T10:53:13.649Z,13.60
2023-01-20T10:55:53.640Z,12.33
2023-01-20T10:58:29.204Z,12.07
2023-01-20T11:00:57.764Z,12.67
2023-01-20T11:03:26.085Z,27.23
2023-01-20T11:05:53.024Z,14.83
2023-01-20T11:08:25.472Z,21.77
2023-01-20T11:10:56.479Z,18.88
2023-01-20T11:13:23.498Z,14.17
2023-01-20T11:15:57.723Z,15.43
2023-01-20T11:18:30.885Z,16.90
2023-01-20T11:21:04.314Z,12.87
2023-01-20T11:23:52.792Z,12.27
2023-01-20T11:26:28.455Z,12.15
2023-01-20T11:29:22.916Z,12.30
2023-01-20T11:31:56.398Z,11.23
2023-01-20T11:34:36.598Z,13.55
2023-01-20T11:37:06.382Z,14.13
2023-01-20T11:39:42.241Z,13.48
2023-01-20T11:42:15.843Z,11.60
2023-01-20T11:44:46.607Z,12.60
2023-01-20T11:47:26.559Z,13.48
2023-01-20T11:50:08.983Z,12.90
2023-01-20T11:52:46.249Z,13.52
2023-01-20T11:55:12.866Z,12.30
2023-01-20T11:58:01.678Z,15.23
2023-01-20T12:00:31.667Z,13.77
2023-01-20T12:03:17.235Z,13.23
2023-01-20T12:05:59.350Z,18.13
2023-01-20T12:08:51.174Z,23.70
2023-01-20T12:11:40.196Z,16.25
2023-01-20T12:14:29.810Z,17.00
2023-01-20T12:17:15.127Z,16.47
2023-01-20T12:19:58.862Z,15.02
2023-01-20T12:22:44.855Z,14.10
2023-01-20T12:25:19.923Z,14.80
2023-01-20T12:28:04.570Z,15.57
2023-01-20T12:30:51.631Z,14.82
2023-01-20T12:37:02.931Z,15.43
2023-01-20T12:39:45.181Z,16.37
2023-01-20T12:42:52.687Z,16.93
2023-01-20T12:45:48.451Z,14.93
2023-01-20T12:48:39.102Z,15.75
2023-01-20T12:51:28.918Z,16.17
2023-01-20T12:54:18.972Z,19.57
2023-01-20T12:57:13.692Z,15.68
2023-01-20T13:00:16.232Z,18.08
2023-01-20T13:03:11.650Z,17.27
2023-01-20T13:05:49.911Z,17.00
2023-01-20T13:08:38.442Z,17.63
2023-01-20T13:11:15.450Z,22.45
2023-01-20T13:14:06.607Z,17.50
2023-01-20T13:16:52.130Z,16.73
2023-01-20T13:19:41.975Z,16.58
2023-01-20T13:22:13.069Z,16.58
2023-01-20T13:24:44.928Z,15.18
2023-01-20T13:27:13.787Z,14.73
2023-01-20T13:29:50.398Z,15.88
2023-01-20T13:32:45.968Z,14.70
2023-01-20T13:35:30.383Z,15.02
2023-01-20T13:38:02.786Z,47.60
2023-01-20T13:40:35.594Z,18.52
2023-01-20T13:43:22.159Z,16.30
2023-01-20T13:46:07.238Z,16.02
2023-01-20T13:48:39.115Z,30.92
2023-01-20T13:51:27.932Z,16.83
2023-01-20T13:53:56.884Z,17.75
2023-01-20T13:56:33.182Z,15.40
2023-01-20T13:59:00.161Z,20.83
2023-01-20T14:01:28.480Z,23.42
2023-01-20T14:04:16.315Z,18.55
2023-01-20T14:06:48.177Z,12.18
2023-01-20T14:09:23.284Z,11.05
2023-01-20T14:11:52.120Z,11.52
2023-01-20T14:14:21.418Z,11.65
2023-01-20T14:16:48.266Z,11.70
2023-01-20T14:21:58.124Z,11.82
2023-01-20T14:24:43.540Z,11.70
2023-01-20T14:27:28.280Z,11.38
2023-01-20T14:29:56.777Z,12.65
2023-01-20T14:32:34.474Z,12.07
2023-01-20T14:35:02.206Z,11.23
2023-01-20T14:37:37.565Z,11.63
2023-01-20T14:40:10.305Z,11.45
2023-01-20T14:42:38.689Z,11.30
2023-01-20T14:45:23.567Z,11.30
2023-01-20T14:47:51.703Z,11.57
2023-01-20T14:50:19.588Z,12.13
2023-01-20T14:52:46.701Z,11.60
2023-01-20T14:55:35.887Z,11.80
2023-01-20T14:58:15.744Z,10.67
2023-01-20T15:00:44.615Z,11.10
2023-01-20T15:03:26.218Z,10.17
2023-01-20T15:05:59.656Z,10.63
2023-01-20T15:08:32.032Z,10.77
2023-01-20T15:11:20.913Z,12.33
2023-01-20T15:14:04.794Z,12.60
2023-01-20T15:16:44.098Z,11.50
2023-01-20T15:19:13.949Z,11.17
2023-01-20T15:21:41.687Z,11.20
2023-01-20T15:24:20.613Z,10.47
2023-01-20T15:26:52.598Z,10.20
2023-01-20T15:29:23.602Z,9.63
2023-01-20T15:31:56.075Z,13.77
2023-01-20T15:34:23.196Z,10.00
2023-01-20T15:36:51.517Z,10.50
2023-01-20T15:39:29.419Z,10.47
2023-01-20T15:42:01.502Z,10.77
2023-01-20T15:44:29.932Z,10.10
2023-01-20T15:46:57.672Z,11.37
2023-01-20T15:49:25.264Z,10.60
2023-01-20T15:51:52.395Z,11.53
2023-01-20T15:54:19.234Z,12.90
2023-01-20T15:56:46.322Z,12.90
2023-01-20T15:59:14.618Z,12.43
2023-01-20T16:01:41.411Z,13.03
2023-01-20T16:04:09.292Z,11.90
2023-01-20T16:06:37.483Z,12.83
2023-01-20T16:09:14.225Z,12.37
2023-01-20T16:11:42.337Z,13.50
2023-01-20T16:14:09.041Z,14.43
2023-01-20T16:16:42.039Z,14.33
2023-01-20T16:19:14.777Z,14.53
2023-01-20T16:21:43.126Z,16.23
2023-01-20T16:24:12.226Z,15.27
2023-01-20T16:26:39.025Z,14.93
2023-01-20T16:29:05.630Z,16.43
2023-01-20T16:31:33.392Z,16.00
2023-01-20T16:34:00.101Z,16.07
2023-01-20T16:36:26.750Z,15.40
2023-01-20T16:38:54.046Z,14.80
2023-01-20T16:41:23.430Z,15.20
2023-01-20T16:43:51.929Z,15.93
2023-01-20T16:46:24.471Z,15.93
2023-01-20T16:48:53.381Z,16.63
2023-01-20T16:51:25.715Z,16.77
2023-01-20T16:53:55.243Z,16.37
2023-01-20T16:56:25.646Z,16.57
2023-01-20T16:59:02.977Z,16.90
2023-01-20T17:01:30.500Z,16.90
2023-01-20T17:03:59.278Z,17.03
2023-01-20T17:06:31.594Z,17.13
2023-01-20T17:09:00.229Z,16.80
2023-01-20T17:11:30.483Z,16.20
2023-01-20T17:13:58.487Z,17.70
2023-01-20T17:16:28.455Z,17.83
2023-01-20T17:18:58.523Z,17.60
2023-01-20T17:21:27.587Z,19.47
2023-01-20T17:23:56.547Z,19.50
2023-01-20T17:26:24.091Z,19.40
2023-01-20T17:28:58.091Z,18.77
2023-01-20T17:31:25.010Z,17.67
2023-01-20T17:33:53.680Z,18.73
2023-01-20T17:36:20.587Z,19.13
2023-01-20T17:38:47.684Z,17.90
2023-01-20T17:41:15.013Z,19.17
2023-01-20T17:43:44.328Z,20.00
2023-01-20T17:46:22.611Z,19.37
2023-01-20T17:48:50.445Z,20.33
2023-01-20T17:51:20.320Z,19.33
2023-01-20T17:53:48.012Z,19.93
2023-01-20T17:56:15.960Z,20.10
2023-01-20T17:58:43.951Z,20.60
2023-01-20T18:01:26.034Z,19.83
2023-01-20T18:03:58.934Z,20.10
2023-01-20T18:06:27.653Z,20.27
2023-01-20T18:08:57.708Z,20.60
2023-01-20T18:11:26.973Z,21.00
2023-01-20T18:13:56.256Z,21.37
2023-01-20T18:16:28.870Z,22.00
2023-01-20T18:18:58.787Z,21.60
2023-01-20T18:21:29.135Z,22.57
2023-01-20T18:23:57.141Z,22.27
2023-01-20T18:26:25.948Z,22.40
2023-01-20T18:28:57.052Z,22.70
2023-01-20T18:31:25.427Z,22.33
2023-01-20T18:33:57.825Z,21.93
2023-01-20T18:36:38.034Z,20.43
2023-01-20T18:44:29.323Z,21.50
2023-01-20T18:46:55.936Z,21.50
2023-01-20T18:49:22.521Z,22.70
2023-01-20T18:51:49.136Z,22.00
2023-01-20T18:54:18.032Z,21.23
2023-01-20T18:56:45.100Z,22.97
2023-01-20T18:59:12.390Z,21.90
2023-01-20T19:01:40.581Z,22.60
2023-01-20T19:04:12.367Z,23.17
2023-01-20T19:06:44.638Z,23.53
2023-01-20T19:09:16.407Z,23.07
2023-01-20T19:11:47.243Z,24.17
2023-01-20T19:14:14.983Z,26.17
2023-01-20T19:16:45.697Z,27.17
2023-01-20T19:19:13.466Z,26.93
2023-01-20T19:21:45.789Z,27.03
2023-01-20T19:24:21.925Z,25.43
2023-01-20T19:26:51.210Z,25.90
2023-01-20T19:29:18.729Z,25.80
2023-01-20T19:31:45.742Z,24.70
2023-01-20T19:34:19.406Z,25.17
2023-01-20T19:36:46.390Z,24.67
2023-01-20T19:39:16.267Z,23.53
2023-01-20T19:41:44.883Z,24.17
2023-01-20T19:44:14.291Z,23.73
2023-01-20T19:46:41.295Z,23.43
2023-01-20T19:49:12.119Z,22.40
2023-01-20T19:51:39.389Z,23.93
2023-01-20T19:54:07.967Z,24.23
2023-01-20T19:56:36.583Z,23.60
2023-01-20T19:59:05.999Z,23.00
2023-01-20T20:01:35.850Z,23.70
2023-01-20T20:04:13.789Z,22.03
2023-01-20T20:06:45.681Z,23.60
2023-01-20T20:09:15.915Z,22.67
2023-01-20T20:11:46.305Z,22.30
2023-01-20T20:14:20.254Z,22.50
2023-01-20T20:16:49.361Z,21.37
2023-01-20T20:19:18.559Z,21.93
2023-01-20T20:21:46.148Z,21.57
2023-01-20T20:24:19.003Z,22.47
2023-01-20T20:26:46.958Z,20.97
2023-01-20T20:29:15.678Z,22.57
2023-01-20T20:31:45.829Z,22.23
2023-01-20T20:34:18.290Z,20.73
2023-01-20T20:36:50.434Z,20.97
2023-01-20T20:39:19.271Z,20.90
2023-01-20T20:41:50.638Z,21.03
2023-01-20T20:44:19.422Z,22.47
2023-01-20T20:46:49.568Z,21.77
2023-01-20T20:49:19.150Z,22.30
2023-01-20T20:51:46.752Z,22.93
2023-01-20T20:54:20.030Z,22.10
2023-01-20T20:56:46.786Z,22.37
2023-01-20T20:59:14.053Z,21.20
2023-01-20T21:01:41.809Z,21.77
2023-01-20T21:04:09.838Z,22.53
2023-01-20T21:06:41.427Z,22.10
2023-01-20T21:09:09.125Z,21.83
2023-01-20T21:11:38.304Z,21.63
2023-01-20T21:14:05.224Z,21.83
2023-01-20T21:16:31.962Z,22.30
2023-01-20T21:19:01.279Z,21.80
2023-01-20T21:21:31.223Z,23.37
2023-01-20T21:24:03.314Z,23.03
2023-01-20T21:26:30.951Z,23.20
2023-01-20T21:29:01.850Z,23.93
2023-01-20T21:31:34.246Z,22.23
2023-01-20T21:34:12.761Z,22.97
2023-01-20T21:36:46.972Z,22.00
2023-01-20T21:39:24.181Z,23.23
2023-01-20T21:41:50.830Z,22.73
2023-01-20T21:44:32.019Z,23.63
2023-01-20T21:47:15.513Z,22.80
2023-01-20T21:50:02.207Z,22.50
2023-01-20T21:52:54.161Z,22.77
2023-01-20T21:55:21.872Z,23.53
2023-01-20T21:57:51.287Z,23.63
2023-01-20T22:00:18.774Z,23.90
2023-01-20T22:02:45.774Z,23.73
2023-01-20T22:05:13.415Z,23.63
2023-01-20T22:07:40.673Z,24.50
2023-01-20T22:10:08.179Z,24.77
2023-01-20T22:12:35.574Z,24.50
2023-01-20T22:15:03.365Z,25.67
2023-01-20T22:17:30.989Z,25.63
2023-01-20T22:19:57.789Z,25.73
2023-01-20T22:22:24.646Z,24.80
2023-01-20T22:24:53.886Z,26.87
2023-01-20T22:27:21.544Z,26.37
2023-01-20T22:29:49.141Z,26.07
2023-01-20T22:32:16.006Z,27.67
2023-01-20T22:34:53.467Z,27.20
2023-01-20T22:37:20.472Z,26.80
2023-01-20T22:39:48.872Z,27.27
2023-01-20T22:42:15.922Z,28.10
2023-01-20T22:44:42.528Z,27.83
2023-01-20T22:47:10.844Z,27.60
2023-01-20T22:49:37.423Z,28.53
2023-01-20T22:52:04.122Z,29.10
2023-01-20T22:54:30.846Z,29.33
2023-01-20T22:56:57.758Z,29.17
2023-01-20T22:59:25.200Z,29.83
2023-01-20T23:01:51.996Z,28.90
2023-01-20T23:04:18.555Z,29.73
2023-01-20T23:06:45.844Z,28.47
2023-01-20T23:09:14.576Z,30.33
2023-01-20T23:11:41.414Z,29.90
2023-01-20T23:14:12.844Z,28.83
2023-01-20T23:16:40.585Z,27.53
2023-01-20T23:19:08.516Z,29.13
2023-01-20T23:21:36.097Z,28.87
2023-01-20T23:24:02.884Z,31.13
2023-01-20T23:26:30.677Z,28.60
2023-01-20T23:28:59.646Z,28.83
2023-01-20T23:31:28.985Z,28.53
2023-01-20T23:33:55.650Z,26.77
2023-01-20T23:36:24.935Z,27.20
2023-01-20T23:38:54.760Z,28.27
2023-01-20T23:41:21.996Z,28.80
2023-01-20T23:43:49.813Z,26.80
2023-01-20T23:46:17.348Z,27.40
2023-01-20T23:48:46.691Z,25.70
2023-01-20T23:51:14.297Z,25.20
2023-01-20T23:53:41.614Z,23.97
2023-01-20T23:56:16.217Z,21.23
2023-01-20T23:58:43.771Z,24.23
